createdAt,value
2024-01-01T00:01:58.191Z,99633.03
2024-01-01T00:04:27.547Z,99630.44
2024-01-01T00:06:54.577Z,99631.31
2024-01-01T00:09:21.585Z,99620.06
2024-01-01T00:11:48.576Z,99618.31
2024-01-01T00:14:15.694Z,99613.97
2024-01-01T00:16:43.099Z,99627.78
2024-01-01T00:19:10.881Z,99616.50
2024-01-01T00:21:38.733Z,99606.13
2024-01-01T00:24:06.179Z,99609.53
2024-01-01T00:26:33.183Z,99612.97
2024-01-01T00:29:00.360Z,99618.97
2024-01-01T00:31:27.328Z,99620.72
2024-01-01T00:33:54.367Z,99615.50
2024-01-01T00:36:21.376Z,99620.69
2024-01-01T00:38:48.254Z,99618.94
2024-01-01T00:41:17.254Z,99613.75
2024-01-01T00:43:44.622Z,99612.84
2024-01-01T00:46:12.294Z,99620.59
2024-01-01T00:48:39.512Z,99612.81
2024-01-01T00:51:06.571Z,99611.94
2024-01-01T00:53:34.284Z,99609.31
2024-01-01T00:56:01.292Z,99615.34
2024-01-01T00:58:28.292Z,99611.03
2024-01-01T01:00:57.679Z,99617.09
2024-01-01T01:03:24.883Z,99622.28
2024-01-01T01:05:52.184Z,99621.44
2024-01-01T01:08:19.360Z,99629.19
2024-01-01T01:10:46.870Z,99625.75
2024-01-01T01:13:13.919Z,99631.78
2024-01-01T01:15:40.824Z,99624.88
2024-01-01T01:18:08.198Z,99628.34
2024-01-01T01:20:35.387Z,99624.88
2024-01-01T01:23:02.442Z,99626.59
2024-01-01T01:25:29.415Z,99620.53
2024-01-01T01:27:56.403Z,99623.13
2024-01-01T01:30:23.383Z,99623.09
2024-01-01T01:32:50.355Z,99623.97
2024-01-01T01:35:17.476Z,99614.47
2024-01-01T01:37:45.641Z,99616.22
2024-01-01T01:40:13.134Z,99605.84
2024-01-01T01:42:40.080Z,99611.03
2024-01-01T01:45:07.721Z,99611.00
2024-01-01T01:47:34.785Z,99603.22
2024-01-01T01:50:01.843Z,99611.84
2024-01-01T01:52:28.885Z,99607.53
2024-01-01T01:54:57.643Z,99614.44
2024-01-01T01:57:24.943Z,99611.84
2024-01-01T01:59:52.281Z,99603.22
2024-01-01T02:02:23.669Z,99597.16
2024-01-01T02:04:54.197Z,99591.97
2024-01-01T02:07:22.197Z,99591.09
2024-01-01T02:09:49.725Z,99591.09
2024-01-01T02:12:16.703Z,99585.03
2024-01-01T02:14:44.710Z,99592.78
2024-01-01T02:17:11.629Z,99588.41
2024-01-01T02:19:39.252Z,99593.56
2024-01-01T02:22:06.287Z,99586.63
2024-01-01T02:24:33.247Z,99590.84
2024-01-01T02:27:00.353Z,99589.97
2024-01-01T02:29:27.286Z,99594.25
2024-01-01T02:31:54.185Z,99599.38
2024-01-01T02:34:21.154Z,99593.34
2024-01-01T02:36:48.066Z,99597.63
2024-01-01T02:39:14.933Z,99587.25
2024-01-01T02:41:41.946Z,99586.34
2024-01-01T02:44:09.287Z,99594.97
2024-01-01T02:46:36.383Z,99586.31
2024-01-01T02:49:03.571Z,99590.59
2024-01-01T02:51:30.500Z,99584.56
2024-01-01T02:53:57.720Z,99591.44
2024-01-01T02:56:28.016Z,99582.81
2024-01-01T02:58:56.171Z,99588.81
2024-01-01T03:01:23.196Z,99580.13
2024-01-01T03:03:50.242Z,99582.69
2024-01-01T03:06:20.688Z,99584.41
2024-01-01T03:08:47.943Z,99583.47
2024-01-01T03:11:15.600Z,99587.75
2024-01-01T03:13:42.753Z,99587.78
2024-01-01T03:16:10.100Z,99590.34
2024-01-01T03:18:37.293Z,99586.88
2024-01-01T03:21:04.919Z,99593.78
2024-01-01T03:23:31.915Z,99584.22
2024-01-01T03:25:58.990Z,99592.81
2024-01-01T03:28:26.022Z,99589.28
2024-01-01T03:30:53.078Z,99591.88
2024-01-01T03:33:20.251Z,99587.53
2024-01-01T03:35:47.262Z,99592.63
2024-01-01T03:38:14.245Z,99589.19
2024-01-01T03:40:41.888Z,99588.38
2024-01-01T03:43:09.047Z,99580.63
2024-01-01T03:45:36.025Z,99580.75
2024-01-01T03:48:03.523Z,99580.78
2024-01-01T03:50:30.672Z,99582.56
2024-01-01T03:52:57.639Z,99586.88
2024-01-01T03:55:24.560Z,99587.75
2024-01-01T03:57:51.510Z,99582.56
2024-01-01T04:00:18.799Z,99580.84
2024-01-01T04:02:47.695Z,99583.44
2024-01-01T04:05:15.001Z,99581.66
2024-01-01T04:07:42.235Z,99572.97
2024-01-01T04:10:10.625Z,99575.47
2024-01-01T04:12:38.454Z,99577.97
2024-01-01T04:15:06.305Z,99574.41
2024-01-01T04:17:34.283Z,99574.38
2024-01-01T04:20:01.337Z,99569.09
2024-01-01T04:22:28.369Z,99581.16
2024-01-01T04:24:55.383Z,99576.78
2024-01-01T04:27:23.186Z,99586.28
2024-01-01T04:29:50.130Z,99576.81
2024-01-01T04:32:17.147Z,99581.16
2024-01-01T04:34:44.105Z,99584.72
2024-01-01T04:37:11.030Z,99581.38
2024-01-01T04:39:37.939Z,99573.75
2024-01-01T04:42:05.172Z,99580.00
2024-01-01T04:44:32.177Z,99571.44
2024-01-01T04:46:59.337Z,99574.16
2024-01-01T04:49:26.283Z,99570.75
2024-01-01T04:51:53.301Z,99582.03
2024-01-01T04:54:20.292Z,99576.91
2024-01-01T04:56:47.257Z,99579.53
2024-01-01T04:59:14.295Z,99574.38
2024-01-01T05:01:41.325Z,99572.72
2024-01-01T05:04:08.369Z,99577.06
2024-01-01T05:06:35.306Z,99576.28
2024-01-01T05:09:02.192Z,99570.25
2024-01-01T05:11:30.821Z,99561.66
2024-01-01T05:13:57.881Z,99558.25
2024-01-01T05:16:24.949Z,99555.75
2024-01-01T05:18:52.068Z,99548.00
2024-01-01T05:21:19.038Z,99554.09
2024-01-01T05:23:45.900Z,99560.19
2024-01-01T05:26:12.980Z,99552.44
2024-01-01T05:28:40.019Z,99544.72
2024-01-01T05:31:06.950Z,99548.16
2024-01-01T05:33:34.592Z,99541.25
2024-01-01T05:36:01.592Z,99549.00
2024-01-01T05:38:29.298Z,99561.13
2024-01-01T05:40:56.263Z,99554.13
2024-01-01T05:43:23.199Z,99552.34
2024-01-01T05:45:50.388Z,99557.50
2024-01-01T05:48:25.544Z,99568.72
2024-01-01T05:50:56.885Z,99565.25
2024-01-01T05:53:23.869Z,99574.72
2024-01-01T05:55:51.182Z,99563.50
2024-01-01T05:58:18.280Z,99562.63
2024-01-01T06:00:45.271Z,99570.44
2024-01-01T06:03:12.402Z,99573.91
2024-01-01T06:05:39.429Z,99573.91
2024-01-01T06:08:07.207Z,99570.50
2024-01-01T06:10:35.878Z,99575.72
2024-01-01T06:13:03.849Z,99573.16
2024-01-01T06:15:31.034Z,99579.22
2024-01-01T06:17:58.389Z,99583.59
2024-01-01T06:20:25.418Z,99574.94
2024-01-01T06:22:52.376Z,99569.75
2024-01-01T06:25:19.587Z,99566.28
2024-01-01T06:27:46.576Z,99561.97
2024-01-01T06:30:13.946Z,99563.69
2024-01-01T06:32:41.057Z,99568.91
2024-01-01T06:35:08.726Z,99575.00
2024-01-01T06:37:35.695Z,99571.56
2024-01-01T06:40:04.451Z,99562.09
2024-01-01T06:42:31.435Z,99574.25
2024-01-01T06:45:02.255Z,99565.59
2024-01-01T06:47:29.291Z,99572.56
2024-01-01T06:49:56.294Z,99580.34
2024-01-01T06:52:23.295Z,99576.94
2024-01-01T06:54:50.312Z,99573.50
2024-01-01T06:57:17.312Z,99579.59
2024-01-01T06:59:44.510Z,99575.25
2024-01-01T07:02:11.682Z,99576.94
2024-01-01T07:04:38.922Z,99585.50
2024-01-01T07:07:05.950Z,99592.34
2024-01-01T07:09:33.066Z,99593.13
2024-01-01T07:12:00.189Z,99590.47
2024-01-01T07:14:27.486Z,99592.19
2024-01-01T07:16:55.228Z,99587.84
2024-01-01T07:19:22.674Z,99592.16
2024-01-01T07:21:50.120Z,99591.31
2024-01-01T07:24:17.306Z,99598.25
2024-01-01T07:26:44.428Z,99600.00
2024-01-01T07:29:11.524Z,99601.72
2024-01-01T07:31:38.780Z,99596.53
2024-01-01T07:34:06.646Z,99602.56
2024-01-01T07:36:33.826Z,99599.97
2024-01-01T07:39:00.863Z,99587.88
2024-01-01T07:41:28.090Z,99593.09
2024-01-01T07:43:55.138Z,99590.50
2024-01-01T07:46:22.228Z,99589.69
2024-01-01T07:48:49.345Z,99596.66
2024-01-01T07:51:16.777Z,99592.38
2024-01-01T07:53:43.825Z,99589.00
2024-01-01T07:56:10.921Z,99591.78
2024-01-01T07:58:38.101Z,99590.41
2024-01-01T08:01:05.313Z,99599.44
2024-01-01T08:03:32.529Z,99599.72
2024-01-01T08:05:59.821Z,99603.41
2024-01-01T08:08:26.988Z,99596.53
2024-01-01T08:10:57.096Z,99598.22
2024-01-01T08:13:24.080Z,99591.16
2024-01-01T08:18:38.372Z,99594.13
2024-01-01T08:21:05.508Z,99601.66
2024-01-01T08:23:33.106Z,99598.75
2024-01-01T08:26:00.345Z,99606.34
2024-01-01T08:28:27.410Z,99610.41
2024-01-01T08:30:54.346Z,99617.47
2024-01-01T08:33:21.676Z,99611.72
2024-01-01T08:35:48.739Z,99616.50
2024-01-01T08:38:15.913Z,99617.78
2024-01-01T08:40:43.259Z,99620.63
2024-01-01T08:43:10.158Z,99619.84
2024-01-01T08:45:37.145Z,99622.53
2024-01-01T08:48:04.927Z,99612.13
2024-01-01T08:50:32.087Z,99626.03
2024-01-01T08:52:59.080Z,99628.63
2024-01-01T08:55:26.108Z,99620.84
2024-01-01T08:57:53.032Z,99627.78
2024-01-01T09:00:20.157Z,99619.91
2024-01-01T09:02:47.126Z,99627.59
2024-01-01T09:05:17.168Z,99635.19
2024-01-01T09:07:44.167Z,99640.41
2024-01-01T09:10:11.803Z,99637.03
2024-01-01T09:12:38.824Z,99651.06
2024-01-01T09:15:06.477Z,99645.00
2024-01-01T09:17:33.591Z,99648.56
2024-01-01T09:20:00.784Z,99649.47
2024-01-01T09:22:27.772Z,99648.59
2024-01-01T09:24:54.701Z,99650.34
2024-01-01T09:27:22.119Z,99641.66
2024-01-01T09:29:49.022Z,99641.69
2024-01-01T09:32:16.034Z,99643.41
2024-01-01T09:34:43.025Z,99638.19
2024-01-01T09:37:09.930Z,99645.13
2024-01-01T09:39:37.029Z,99637.31
2024-01-01T09:42:05.819Z,99635.56
2024-01-01T09:44:33.713Z,99655.50
2024-01-01T09:47:00.797Z,99645.09
2024-01-01T09:49:27.865Z,99647.69
2024-01-01T09:51:58.018Z,99646.81
2024-01-01T09:54:25.030Z,99655.44
2024-01-01T09:56:51.953Z,99648.50
2024-01-01T09:59:40.871Z,99646.75
2024-01-01T10:02:10.379Z,99651.94
2024-01-01T10:04:37.678Z,99640.63
2024-01-01T10:07:04.793Z,99635.44
2024-01-01T10:09:33.951Z,99631.97
2024-01-01T10:12:10.771Z,99637.16
2024-01-01T10:14:47.924Z,99629.34
2024-01-01T10:17:18.884Z,99626.78
2024-01-01T10:19:50.049Z,99639.78
2024-01-01T10:22:19.669Z,99643.28
2024-01-01T10:24:53.488Z,99641.59
2024-01-01T10:27:21.685Z,99635.56
2024-01-01T10:29:48.689Z,99644.22
2024-01-01T10:32:19.943Z,99644.22
2024-01-01T10:34:48.021Z,99637.28
2024-01-01T10:37:16.445Z,99640.69
2024-01-01T10:39:45.750Z,99640.72
2024-01-01T10:42:12.670Z,99640.69
2024-01-01T10:44:40.659Z,99638.09
2024-01-01T10:47:11.454Z,99635.47
2024-01-01T10:49:53.743Z,99644.09
2024-01-01T10:52:56.704Z,99644.13
2024-01-01T10:55:54.508Z,99637.19
2024-01-01T10:58:39.430Z,99643.25
2024-01-01T11:01:18.289Z,99641.50
2024-01-01T11:03:47.950Z,99638.91
2024-01-01T11:06:32.486Z,99641.50
2024-01-01T11:09:22.511Z,99637.19
2024-01-01T11:11:51.185Z,99639.78
2024-01-01T11:14:39.652Z,99646.69
2024-01-01T11:17:08.470Z,99645.84
2024-01-01T11:19:45.444Z,99647.59
2024-01-01T11:22:21.599Z,99639.81
2024-01-01T11:24:50.476Z,99642.44
2024-01-01T11:27:48.502Z,99644.16
2024-01-01T11:30:17.760Z,99645.06
2024-01-01T11:32:44.874Z,99636.38
2024-01-01T11:35:16.283Z,99642.47
2024-01-01T11:37:46.041Z,99642.47
2024-01-01T11:40:14.014Z,99645.09
2024-01-01T11:42:42.018Z,99644.22
2024-01-01T11:45:17.836Z,99627.75
2024-01-01T11:47:47.143Z,99631.22
2024-01-01T11:50:15.305Z,99629.50
2024-01-01T11:52:42.930Z,99629.50
2024-01-01T11:55:10.092Z,99623.44
2024-01-01T11:57:37.260Z,99623.44
2024-01-01T12:00:04.948Z,99628.63
2024-01-01T12:02:34.198Z,99630.38
2024-01-01T12:05:01.837Z,99632.13
2024-01-01T12:07:33.904Z,99631.25
2024-01-01T12:10:12.639Z,99626.91
2024-01-01T12:12:42.138Z,99619.97
2024-01-01T12:15:14.352Z,99626.91
2024-01-01T12:17:46.703Z,99639.94
2024-01-01T12:20:21.890Z,99622.56
2024-01-01T12:22:50.574Z,99627.78
2024-01-01T12:25:20.710Z,99618.22
2024-01-01T12:28:04.052Z,99617.34
2024-01-01T12:30:31.775Z,99623.44
2024-01-01T12:32:58.968Z,99613.03
2024-01-01T12:35:26.261Z,99613.00
2024-01-01T12:37:54.010Z,99615.59
2024-01-01T12:40:21.975Z,99609.53
2024-01-01T12:42:49.206Z,99613.88
2024-01-01T12:45:17.560Z,99606.91
2024-01-01T12:47:44.708Z,99606.91
2024-01-01T12:50:12.323Z,99603.47
2024-01-01T12:52:39.847Z,99610.41
2024-01-01T12:55:08.456Z,99614.75
2024-01-01T12:57:35.429Z,99609.53
2024-01-01T13:00:02.795Z,99607.81
2024-01-01T13:02:30.090Z,99595.69
2024-01-01T13:04:57.094Z,99604.34
2024-01-01T13:07:24.105Z,99603.47
2024-01-01T13:09:51.057Z,99600.84
2024-01-01T13:12:18.249Z,99603.50
2024-01-01T13:14:45.217Z,99604.34
2024-01-01T13:17:13.135Z,99607.81
2024-01-01T13:19:40.379Z,99613.03
2024-01-01T13:22:09.111Z,99603.47
2024-01-01T13:24:37.086Z,99612.16
2024-01-01T13:27:04.380Z,99612.16
2024-01-01T13:29:31.852Z,99613.91
2024-01-01T13:31:58.938Z,99613.88
2024-01-01T13:34:26.108Z,99609.53
2024-01-01T13:36:53.170Z,99612.13
2024-01-01T13:39:20.168Z,99611.28
2024-01-01T13:41:47.806Z,99611.25
2024-01-01T13:44:14.919Z,99609.53
2024-01-01T13:46:42.095Z,99610.38
2024-01-01T13:49:09.282Z,99606.94
2024-01-01T13:51:36.294Z,99615.63
2024-01-01T13:54:03.310Z,99608.69
2024-01-01T13:56:30.548Z,99612.13
2024-01-01T13:58:58.279Z,99608.66
2024-01-01T14:01:36.562Z,99611.25
2024-01-01T14:04:03.691Z,99615.59
2024-01-01T14:06:30.709Z,99609.50
2024-01-01T14:08:57.737Z,99613.84
2024-01-01T14:11:24.739Z,99614.69
2024-01-01T14:13:51.808Z,99613.88
2024-01-01T14:16:18.782Z,99613.00
2024-01-01T14:18:47.037Z,99613.84
2024-01-01T14:21:15.971Z,99600.84
2024-01-01T14:23:42.898Z,99608.66
2024-01-01T14:26:10.008Z,99623.41
2024-01-01T14:28:36.981Z,99619.94
2024-01-01T14:31:03.909Z,99613.88
2024-01-01T14:33:31.057Z,99619.91
2024-01-01T14:35:58.039Z,99619.94
2024-01-01T14:38:25.883Z,99629.47
2024-01-01T14:40:53.192Z,99627.75
2024-01-01T14:43:20.200Z,99627.75
2024-01-01T14:45:47.118Z,99629.47
2024-01-01T14:48:14.697Z,99631.19
2024-01-01T14:50:41.771Z,99637.25
2024-01-01T14:53:08.967Z,99634.66
2024-01-01T14:55:37.130Z,99640.72
2024-01-01T14:58:04.329Z,99645.94
2024-01-01T15:00:31.490Z,99638.13
2024-01-01T15:02:58.674Z,99640.75
2024-01-01T15:05:27.278Z,99646.81
2024-01-01T15:07:54.535Z,99646.81
2024-01-01T15:10:21.573Z,99654.63
2024-01-01T15:12:48.626Z,99647.69
2024-01-01T15:15:16.145Z,99662.44
2024-01-01T15:17:45.132Z,99657.22
2024-01-01T15:20:12.746Z,99663.28
2024-01-01T15:22:39.720Z,99658.94
2024-01-01T15:25:07.505Z,99659.81
2024-01-01T15:27:34.466Z,99670.22
2024-01-01T15:30:01.479Z,99675.41
2024-01-01T15:32:28.521Z,99671.94
2024-01-01T15:34:55.552Z,99680.59
2024-01-01T15:37:23.131Z,99674.53
2024-01-01T15:39:50.077Z,99687.53
2024-01-01T15:42:17.000Z,99683.16
2024-01-01T15:44:43.924Z,99695.34
2024-01-01T15:47:10.876Z,99684.03
2024-01-01T15:49:37.912Z,99695.28
2024-01-01T15:52:10.719Z,99688.31
2024-01-01T15:54:40.859Z,99691.78
2024-01-01T15:57:09.397Z,99703.91
2024-01-01T15:59:36.598Z,99698.72
2024-01-01T16:02:07.906Z,99705.66
2024-01-01T16:04:37.269Z,99705.66
2024-01-01T16:07:04.511Z,99705.66
2024-01-01T16:09:31.595Z,99714.31
2024-01-01T16:11:58.493Z,99716.06
2024-01-01T16:14:25.671Z,99709.97
2024-01-01T16:16:54.766Z,99712.56
2024-01-01T16:19:31.321Z,99719.50
2024-01-01T16:22:01.476Z,99712.53
2024-01-01T16:24:28.405Z,99716.00
2024-01-01T16:26:55.384Z,99725.53
2024-01-01T16:29:22.626Z,99725.50
2024-01-01T16:31:49.653Z,99715.06
2024-01-01T16:34:16.653Z,99721.09
2024-01-01T16:36:53.133Z,99724.53
2024-01-01T16:39:20.833Z,99728.81
2024-01-01T16:41:47.876Z,99729.63
2024-01-01T16:44:14.950Z,99732.25
2024-01-01T16:46:41.911Z,99739.16
2024-01-01T16:49:10.145Z,99727.88
2024-01-01T16:51:40.766Z,99733.94
2024-01-01T16:54:07.787Z,99735.69
2024-01-01T16:56:34.738Z,99734.81
2024-01-01T16:59:01.772Z,99740.03
2024-01-01T17:01:28.752Z,99741.75
2024-01-01T17:03:55.782Z,99742.59
2024-01-01T17:06:23.690Z,99754.72
2024-01-01T17:08:50.647Z,99742.53
2024-01-01T17:11:17.656Z,99761.59
2024-01-01T17:13:44.836Z,99758.13
2024-01-01T17:16:14.382Z,99756.38
2024-01-01T17:18:43.886Z,99761.56
2024-01-01T17:21:11.550Z,99763.28
2024-01-01T17:23:38.879Z,99763.28
2024-01-01T17:26:06.049Z,99764.16
2024-01-01T17:28:34.881Z,99771.09
2024-01-01T17:31:03.452Z,99776.28
2024-01-01T17:33:30.672Z,99775.41
2024-01-01T17:35:58.887Z,99782.31
2024-01-01T17:38:25.942Z,99784.91
2024-01-01T17:40:54.820Z,99790.94
2024-01-01T17:43:22.826Z,99785.72
2024-01-01T17:45:49.960Z,99791.78
2024-01-01T17:48:17.079Z,99789.16
2024-01-01T17:50:44.387Z,99796.97
2024-01-01T17:53:11.466Z,99804.75
2024-01-01T17:55:38.435Z,99790.88
2024-01-01T17:58:05.627Z,99792.56
2024-01-01T18:00:32.576Z,99803.81
2024-01-01T18:02:59.484Z,99804.63
2024-01-01T18:05:28.797Z,99804.59
2024-01-01T18:07:55.924Z,99807.16
2024-01-01T18:10:22.923Z,99806.25
2024-01-01T18:12:49.926Z,99801.88
2024-01-01T18:15:19.870Z,99808.81
2024-01-01T18:17:47.382Z,99802.69
2024-01-01T18:20:14.650Z,99820.84
2024-01-01T18:22:41.792Z,99812.13
2024-01-01T18:25:11.364Z,99824.22
2024-01-01T18:27:40.168Z,99809.50
2024-01-01T18:30:08.483Z,99821.59
2024-01-01T18:32:35.548Z,99822.41
2024-01-01T18:35:02.799Z,99809.41
2024-01-01T18:37:30.137Z,99818.03
2024-01-01T18:39:57.022Z,99827.53
2024-01-01T18:42:27.379Z,99819.72
2024-01-01T18:44:58.308Z,99814.47
2024-01-01T18:47:26.681Z,99810.06
2024-01-01T18:49:54.198Z,99819.53
2024-01-01T18:52:21.398Z,99816.94
2024-01-01T18:54:48.329Z,99818.63
2024-01-01T18:57:15.290Z,99815.94
2024-01-01T18:59:42.227Z,99818.47
2024-01-01T19:02:09.226Z,99818.47
2024-01-01T19:04:36.386Z,99823.59
2024-01-01T19:07:03.592Z,99831.34
2024-01-01T19:09:32.861Z,99829.63
2024-01-01T19:11:59.833Z,99830.50
2024-01-01T19:14:26.824Z,99822.75
2024-01-01T19:16:53.826Z,99825.31
2024-01-01T19:19:20.753Z,99829.56
2024-01-01T19:21:47.773Z,99833.88
2024-01-01T19:24:15.330Z,99826.97
2024-01-01T19:26:49.407Z,99837.34
2024-01-01T19:29:16.489Z,99830.41
2024-01-01T19:31:45.104Z,99836.34
2024-01-01T19:34:12.395Z,99831.94
2024-01-01T19:36:39.344Z,99833.66
2024-01-01T19:39:06.420Z,99842.28
2024-01-01T19:41:33.594Z,99838.84
2024-01-01T19:44:01.972Z,99841.41
2024-01-01T19:46:29.027Z,99842.34
2024-01-01T19:48:56.737Z,99839.81
2024-01-01T19:51:23.694Z,99841.56
2024-01-01T19:53:50.698Z,99845.94
2024-01-01T19:56:27.294Z,99850.28
2024-01-01T19:58:54.573Z,99848.53
2024-01-01T20:01:22.320Z,99844.25
2024-01-01T20:03:49.576Z,99850.34
2024-01-01T20:06:16.964Z,99846.91
2024-01-01T20:08:44.001Z,99846.94
2024-01-01T20:11:24.359Z,99846.94
2024-01-01T20:13:51.966Z,99850.41
2024-01-01T20:16:26.556Z,99844.38
2024-01-01T20:18:53.839Z,99851.34
2024-01-01T20:21:22.465Z,99853.06
2024-01-01T20:23:50.469Z,99857.38
2024-01-01T20:26:24.956Z,99854.78
2024-01-01T20:28:55.412Z,99853.09
2024-01-01T20:31:24.075Z,99847.91
2024-01-01T20:33:56.165Z,99859.19
2024-01-01T20:36:27.293Z,99850.53
2024-01-01T20:39:00.486Z,99861.78
2024-01-01T20:41:30.185Z,99866.97
2024-01-01T20:43:57.319Z,99872.13
2024-01-01T20:46:24.893Z,99869.50
2024-01-01T20:48:51.954Z,99869.50
2024-01-01T20:51:19.588Z,99865.16
2024-01-01T20:53:46.757Z,99865.22
2024-01-01T20:56:14.041Z,99861.78
2024-01-01T20:58:41.468Z,99861.78
2024-01-01T21:01:08.783Z,99870.44
2024-01-01T21:03:39.018Z,99865.25
2024-01-01T21:06:10.798Z,99877.34
2024-01-01T21:08:39.069Z,99877.34
2024-01-01T21:11:07.867Z,99878.22
2024-01-01T21:13:37.429Z,99867.00
2024-01-01T21:16:06.058Z,99868.75
2024-01-01T21:18:33.325Z,99873.09
2024-01-01T21:21:00.441Z,99874.84
2024-01-01T21:23:28.137Z,99868.81
2024-01-01T21:25:55.934Z,99867.13
2024-01-01T21:28:23.082Z,99874.91
2024-01-01T21:30:50.112Z,99878.34
2024-01-01T21:33:17.261Z,99874.03
2024-01-01T21:35:44.664Z,99880.09
2024-01-01T21:38:11.770Z,99890.50
2024-01-01T21:40:39.356Z,99878.38
2024-01-01T21:43:07.702Z,99881.84
2024-01-01T21:45:35.090Z,99877.50
2024-01-01T21:48:03.733Z,99879.25
2024-01-01T21:50:33.115Z,99874.03
2024-01-01T21:53:00.534Z,99876.63
2024-01-01T21:55:27.572Z,99882.69
2024-01-01T21:57:54.545Z,99887.03
2024-01-01T22:00:22.010Z,99891.31
2024-01-01T22:02:50.963Z,99893.91
2024-01-01T22:05:19.279Z,99889.56
2024-01-01T22:07:49.491Z,99895.59
2024-01-01T22:10:16.896Z,99890.41
2024-01-01T22:12:43.844Z,99896.44
2024-01-01T22:15:17.352Z,99898.19
2024-01-01T22:17:46.193Z,99893.00
2024-01-01T22:20:13.662Z,99887.84
2024-01-01T22:22:40.619Z,99887.84
2024-01-01T22:25:08.125Z,99887.84
2024-01-01T22:27:35.015Z,99890.44
2024-01-01T22:30:03.857Z,99892.16
2024-01-01T22:32:31.239Z,99888.69
2024-01-01T22:34:58.432Z,99884.38
2024-01-01T22:37:25.558Z,99880.03
2024-01-01T22:39:52.467Z,99893.03
2024-01-01T22:42:19.378Z,99897.34
2024-01-01T22:44:46.319Z,99905.13
2024-01-01T22:47:13.230Z,99900.78
2024-01-01T22:49:40.252Z,99904.22
2024-01-01T22:52:07.152Z,99904.22
2024-01-01T22:54:34.164Z,99902.47
2024-01-01T22:57:01.064Z,99892.94
2024-01-01T22:59:28.103Z,99897.25
2024-01-01T23:01:55.113Z,99893.78
2024-01-01T23:04:22.633Z,99898.09
2024-01-01T23:06:49.567Z,99899.81
2024-01-01T23:09:16.531Z,99904.97
2024-01-01T23:11:43.544Z,99895.44
2024-01-01T23:14:10.497Z,99902.34
2024-01-01T23:16:37.695Z,99898.88
2024-01-01T23:19:05.084Z,99899.75
2024-01-01T23:21:32.319Z,99902.34
2024-01-01T23:23:59.221Z,99891.16
2024-01-01T23:26:26.391Z,99904.16
2024-01-01T23:28:54.083Z,99905.91
2024-01-01T23:31:21.229Z,99910.25
2024-01-01T23:33:55.900Z,99921.53
2024-01-01T23:36:28.311Z,99913.75
2024-01-01T23:38:55.330Z,99915.50
2024-01-01T23:41:22.248Z,99911.16
2024-01-01T23:43:49.377Z,99919.78
2024-01-01T23:46:16.267Z,99912.00
2024-01-01T23:48:43.213Z,99919.78
2024-01-01T23:51:10.142Z,99916.31
2024-01-01T23:53:37.175Z,99918.03
2024-01-01T23:56:04.619Z,99917.16
2024-01-01T23:58:31.531Z,99908.53
